Pos.Doss.NomPrenomTempsVit.Moy.Allure Pos. catégCatégorie Points Club
1 723 RENARD ARNAUD 00:35:15 17.7 00:03:23 1Séniors 1000
2 283 Mémurlin Christophe 00:35:40 17.5 00:03:26 2Séniors 994 DE VALOIS MJ SPORT
3 53 Baar Grégory 00:36:31 17.09 00:03:31 3Séniors 988
4 317 Vrancken Jo 00:37:17 16.74 00:03:35 4Séniors 981 MJ Sport
5 9950 CABO REGUERA FRANCISCO 00:37:58 16.44 00:03:39 1Vétérans 1 975
6 24 Scholzen Christophe 00:38:29 16.21 00:03:42 5Séniors 969 team Somja
7 9923 SCHOUMACKERS BENOIT 00:39:34 15.77 00:03:48 2Vétérans 1 963
8 731 ARGENTO ANAEL 00:39:42 15.72 00:03:49 6Séniors 957
9 115 Guissart Alain 00:39:44 15.7 00:03:49 3Vétérans 1 950
10 37 Pipeleers Kris 00:40:10 15.54 00:03:52 4Vétérans 1 944
11 9957 SULEAU THOMAS 00:40:15 15.5 00:03:52 7Séniors 938
12 9939 DUHR SEBASTIEN 00:40:35 15.38 00:03:54 8Séniors 932
13 9932 HEMMER OLIVIER 00:40:42 15.33 00:03:55 5Vétérans 1 925
14 9926 GARIN YVES 00:40:54 15.26 00:03:56 6Vétérans 1 919
15 9943 OHN CHRISTOPHE 00:41:01 15.21 00:03:57 7Vétérans 1 913
16 9919 FERON LAURENT 00:41:02 15.21 00:03:57 8Vétérans 1 907
17 9951 JORIS JONATHAN 00:41:44 14.95 00:04:01 9Séniors 901
18 249 Restiglian Pierre 00:41:47 14.93 00:04:01 10Séniors 894 Jog in attitude
19 48 Halders Servais 00:41:52 14.9 00:04:02 1Vétérans 3 888 Hautes Fagnes
20 725 VANESSE PIERRE 00:42:24 14.72 00:04:05 11Séniors 882
21 376 Bollen Pascal 00:42:34 14.66 00:04:06 1Vétérans 2 876 SER ATHL
22 704 MABILLE GEORGES 00:42:37 14.64 00:04:06 2Vétérans 2 870
23 383 Evrard Roland 00:42:55 14.54 00:04:08 12Séniors 863
24 786 PIRARD ANTONIO 00:43:03 14.49 00:04:08 13Séniors 857
25 9949 DEBIOLLE VINCENT 00:43:16 14.42 00:04:010 3Vétérans 2 851
26 9945 ROI PHILIPPE 00:43:42 14.28 00:04:12 4Vétérans 2 845
27 9911 TOSI IRENE 00:43:44 14.27 00:04:12 1Dames 839
28 749 BAUMANS BENOIT 00:43:47 14.25 00:04:13 9Vétérans 1 832
29 709 LUCAS CHRISTOPHE 00:44:00 14.18 00:04:14 10Vétérans 1 826
30 762 HOUSEN MICHEL 00:44:06 14.15 00:04:14 11Vétérans 1 820
31 9960 BERTRAND MICHEL 00:44:22 14.06 00:04:16 2Vétérans 3 814
32 9929 MARCHAL ALAIN 00:44:24 14.05 00:04:16 5Vétérans 2 807
33 797 DEGUELDRE VINCENT 00:44:27 14.04 00:04:16 14Séniors 801
34 707 LAMBOTTE CHRISTOPHE 00:44:40 13.97 00:04:18 12Vétérans 1 795
35 9938 DENDAL DIDIER 00:44:50 13.92 00:04:19 6Vétérans 2 789
36 51 Knapen Laurent 00:45:22 13.75 00:04:22 3Vétérans 3 783 jogin attitude
37 766 BOSCOLO MANUEL 00:45:26 13.73 00:04:22 13Vétérans 1 776
38 776 SCHUTZ RENAUD 00:45:35 13.69 00:04:23 14Vétérans 1 770
39 733 KERIS MONIQUE 00:45:47 13.63 00:04:24 1Ainées 2 764
40 9965 VALDES FABIAN 00:45:58 13.58 00:04:25 15Vétérans 1 758
41 9946 WAUTERS THOMAS 00:46:03 13.55 00:04:26 15Séniors 752
42 9914 VERSTRAETEN MARTIN 00:46:10 13.52 00:04:26 16Séniors 745
43 714 TOMBALLE JONATHAN 00:46:13 13.5 00:04:27 17Séniors 739
44 791 GUILLIAMS MAUD 00:46:18 13.48 00:04:27 2Dames 733
45 753 GERARD CHRISTIAN 00:46:21 13.46 00:04:27 16Vétérans 1 727
46 777 LANTIN DAMIEN 00:46:41 13.37 00:04:29 18Séniors 720
47 9920 DELHEZ CLAUDE 00:47:02 13.27 00:04:31 7Vétérans 2 714
48 9918 HEINRICHS GREGORY 00:47:12 13.22 00:04:32 19Séniors 708
49 760 RASSART BRUNO 00:47:23 13.17 00:04:33 8Vétérans 2 702
50 734 KEIL YVES 00:47:33 13.12 00:04:34 17Vétérans 1 696
51 780 BARON NICOLAS 00:47:50 13.05 00:04:36 20Séniors 689
52 726 RAES GUY 00:48:03 12.99 00:04:37 4Vétérans 3 683
53 768 CRANINX DAVID 00:48:06 12.97 00:04:38 21Séniors 677
54 756 HENRION SVEN 00:48:14 12.94 00:04:38 22Séniors 671
55 757 KEVELAER BEATRICE 00:48:16 12.93 00:04:38 1Ainées 1 665
56 746 DI VITO DOMENICO 00:48:31 12.86 00:04:40 5Vétérans 3 658
57 755 FONTAINE CORALIE 00:48:42 12.81 00:04:41 3Dames 652
58 743 LEVAQUE DELPHINE 00:49:03 12.72 00:04:43 2Ainées 1 646
59 9931 DIET FABRICE 00:49:05 12.71 00:04:43 18Vétérans 1 640
60 783 NELIS BENOIT 00:49:13 12.68 00:04:44 19Vétérans 1 634
61 798 NICKS QUENTIN 00:49:14 12.67 00:04:44 23Séniors 627
62 705 DOTRIMONT OLIVIER 00:49:42 12.56 00:04:47 20Vétérans 1 621
63 732 SBILLE CHRISTOPHE 00:49:57 12.49 00:04:48 24Séniors 615
64 5 Mathot Richard 00:50:18 12.41 00:04:50 6Vétérans 3 609 AMC MEHAGNE
65 742 PILLITTERI CARMELO 00:50:32 12.35 00:04:52 9Vétérans 2 602
66 9902 HANQUET YVES 00:50:32 12.35 00:04:52 10Vétérans 2 596
67 721 FRANCOIS VALERIE 00:50:39 12.32 00:04:52 3Ainées 1 590
68 397 Morana Edouard 00:50:41 12.31 00:04:52 21Vétérans 1 584 SER ATHL
69 9963 CUPERS EVELYNE 00:50:43 12.3 00:04:53 4Ainées 1 578
70 761 PIRLET YVES 00:51:00 12.24 00:04:54 7Vétérans 3 571
71 790 LUCAS YVES 00:51:20 12.16 00:04:56 25Séniors 565
72 779 GOYENS JEROME 00:51:21 12.15 00:04:56 26Séniors 559
73 772 VANNESTE LIESBETH 00:51:32 12.11 00:04:57 4Dames 553
74 378 Battistini Luciano 00:51:55 12.02 00:04:60 8Vétérans 3 547
75 706 SIMON BRUNO 00:51:57 12.01 00:04:60 9Vétérans 3 540
76 41 Detrixhe Christophe 00:52:03 11.99 00:05:00 22Vétérans 1 534 WAC
77 769 LOTHE BENOIT 00:52:24 11.91 00:05:02 27Séniors 528
78 9940 GONZALEZ VINCENT 00:52:35 11.87 00:05:03 23Vétérans 1 522
79 775 MATAGNE BENOIT 00:52:35 11.87 00:05:03 24Vétérans 1 516
80 774 BAUDOT CHRISTOPHE 00:52:58 11.78 00:05:06 25Vétérans 1 509
81 736 DOR ALEXIS 00:52:59 11.78 00:05:06 26Vétérans 1 503
82 799 DENIS MAVERICK 00:53:21 11.7 00:05:08 28Séniors 497
83 9930 MOUCHET BARBARA 00:53:28 11.67 00:05:08 5Ainées 1 491
84 787 GILLES KERAN 00:54:12 11.51 00:05:13 1Espoirs H 484
85 84 Stiemes Nathalie 00:54:13 11.51 00:05:13 6Ainées 1 478 SER ATHL
86 763 VAN DEN KIEBOOM BART 00:54:15 11.5 00:05:13 27Vétérans 1 472
87 9962 PARISSE CHRISTIAN 00:54:21 11.48 00:05:14 28Vétérans 1 466
88 9952 LOUWETTE MARIE-CÉLINE 00:54:46 11.39 00:05:16 2Ainées 2 460
89 9953 LANGE JEAN-LOU 00:54:47 11.39 00:05:16 11Vétérans 2 453
90 800 LUTS BENOIT 00:54:49 11.38 00:05:16 29Séniors 447
91 738 PALUMBO GIUSEPPE 00:55:06 11.32 00:05:18 29Vétérans 1 441
92 778 BALDO FABIAN 00:55:09 11.31 00:05:18 30Vétérans 1 435
93 9964 VEREECKEN RUDI 00:55:11 11.31 00:05:18 10Vétérans 3 429
94 72 Mancini Michel 00:55:16 11.29 00:05:19 11Vétérans 3 422 SER ATHL
95 9903 CUPERS PHILIPPE 00:55:21 11.27 00:05:19 31Vétérans 1 416
96 719 GREGOIRE CHRISTINE 00:55:21 11.27 00:05:19 7Ainées 1 410
97 9913 FRAIPONT SABINE 00:55:25 11.26 00:05:20 8Ainées 1 404
98 9917 ROYEN MAGALI 00:55:39 11.21 00:05:21 5Dames 398
99 9925 MARIQUE JULIEN 00:55:42 11.2 00:05:21 30Séniors 391
100 9927 PARIS VINCENT 00:55:54 11.16 00:05:23 32Vétérans 1 385
101 739 DOLCIMASCOLO BALDASSARE 00:55:56 11.16 00:05:23 33Vétérans 1 379
102 9955 VANDEWEYER LUDIVINE 00:56:11 11.11 00:05:24 6Dames 373
103 9924 BERTRAND PATRICK 00:56:26 11.06 00:05:26 34Vétérans 1 366
104 796 BELLAVIA STEPHANE 00:56:27 11.05 00:05:26 31Séniors 360
105 10 Adam Franck 00:56:30 11.04 00:05:26 35Vétérans 1 354 Hst
106 96 Kalin Thierry 00:56:46 10.99 00:05:28 36Vétérans 1 348
107 724 RENARD PATRICK 00:57:08 10.92 00:05:30 12Vétérans 2 342
108 9936 BLOMME JULIEN 00:57:14 10.9 00:05:30 32Séniors 335
109 717 JOB LUDOVIC 00:57:16 10.9 00:05:30 33Séniors 329
110 788 DEWIL JEAN 00:57:27 10.86 00:05:31 13Vétérans 2 323
111 9928 RASSART ERIC 00:57:30 10.85 00:05:32 14Vétérans 2 317
112 365 Wasson André 00:57:48 10.8 00:05:33 15Vétérans 2 311 Jog in Attitude
113 9935 RADDOUX HUGO 00:57:49 10.79 00:05:34 12Vétérans 3 304
114 307 Renwart Sabrina 00:58:02 10.75 00:05:35 7Dames 298 Rdv run beyne heusay
115 9967 CRANINX BÉATRICE 00:58:06 10.74 00:05:35 3Ainées 2 292
116 58 Henry Marie jennifer 00:58:23 10.69 00:05:37 4Ainées 2 286 RDV RUN BEYNE-HEUSAY
117 737 SCIVOLETTO GIOVANNI 00:58:52 10.6 00:05:40 16Vétérans 2 280
118 750 PETERS CHRISTIAN 00:58:57 10.59 00:05:40 17Vétérans 2 273
119 720 STIERNON JOSIANE 00:59:05 10.56 00:05:41 1Ainées 3 267
120 770 OLIVIER MARGUERITE 00:59:15 10.53 00:05:42 5Ainées 2 261
121 708 GILLARD MIREILLE 00:59:31 10.48 00:05:43 6Ainées 2 255
122 765 STAS VERONIQUE 01:00:29 10.32 00:05:49 9Ainées 1 248
123 106 Vlassis Sophie 01:00:54 10.25 00:05:51 10Ainées 1 242 RDV RUN BEYNE
124 710 VERRI DAVID 01:01:06 10.21 00:05:53 37Vétérans 1 236
125 711 BERNARD EMMANUELLE 01:01:24 10.16 00:05:54 11Ainées 1 230
126 712 BRICHART BENOIT 01:01:24 10.16 00:05:54 34Séniors 224
127 703 GYBELS VERONIQUE 01:01:47 10.1 00:05:56 12Ainées 1 217
128 795 ROYER YOHAN 01:01:49 10.09 00:05:57 38Vétérans 1 211
129 784 POLLARD LUC 01:01:58 10.07 00:05:58 18Vétérans 2 205
130 9954 FEKETE CAROLINE 01:02:01 10.06 00:05:58 7Ainées 2 199
131 730 HELLA FABIENNE 01:03:01 9.9 00:06:04 2Ainées 3 193
132 729 WILLEMS DESIRE 01:03:04 9.89 00:06:04 8Ainées 2 186
133 767 COTE VIRGINIE 01:03:19 9.86 00:06:05 8Dames 180
134 801 GIELEN XAVIER 01:03:25 9.84 00:06:06 35Séniors 174
135 758 MALCHAIRE LUCAS 01:03:48 9.78 00:06:08 ? 0
136 759 MALCHAIRE RAPHAEL 01:03:49 9.78 00:06:08 39Vétérans 1 168
137 754 THIOU NATHALIE 01:04:00 9.75 00:06:09 13Ainées 1 161
138 782 THOMAS AMELIE 01:04:25 9.69 00:06:12 9Dames 155
139 9910 POLET LAURENCE 01:04:26 9.68 00:06:12 19Vétérans 2 149
140 727 DUMONT VALERIE 01:04:27 9.68 00:06:12 10Dames 143
141 764 LARDINOIS REGINE 01:04:32 9.67 00:06:12 14Ainées 1 137
142 792 BASSI CLAUDIA 01:04:45 9.64 00:06:14 15Ainées 1 130
143 728 CHARLIER MICHEL 01:04:46 9.63 00:06:14 40Vétérans 1 124
144 16 Balhan Chantal 01:05:29 9.53 00:06:18 16Ainées 1 118 rdv Run
145 781 MEIJNEN AUDREY 01:06:30 9.38 00:06:24 11Dames 112
146 747 DUBOIS ANNE-PASCALE 01:06:31 9.38 00:06:24 17Ainées 1 106
147 702 MASERI FIORELLA 01:06:50 9.34 00:06:26 18Ainées 1 99
148 701 PIRARD ERIC 01:06:50 9.34 00:06:26 20Vétérans 2 93
149 9904 VANMECHELEN GUY 01:07:06 9.3 00:06:27 21Vétérans 2 87
150 9906 DETAILLE LUC 01:07:38 9.23 00:06:30 22Vétérans 2 81
151 61 Woolf Alain 01:07:43 9.21 00:06:31 23Vétérans 2 75 FCHA
152 741 ANGELINI MURIEL 01:08:30 9.11 00:06:35 19Ainées 1 68
153 740 ANGELINI CHRISTELLE 01:08:34 9.1 00:06:36 20Ainées 1 62
154 716 NEEKXKENS JEAN-FRANCOIS 01:09:08 9.03 00:06:39 41Vétérans 1 56
155 773 GRENSON VERONIQUE 01:09:29 8.98 00:06:41 9Ainées 2 50
156 9934 GRENSON VERONIQUE 01:09:30 8.98 00:06:41 10Ainées 2 43
157 793 BOURGUIGNON GUY 01:09:32 8.97 00:06:41 24Vétérans 2 37
158 794 DECOURTY DELPHINE 01:09:33 8.97 00:06:41 12Dames 31
159 9966 CRANINX VIRGINIE 01:11:07 8.77 00:06:50 13Dames 25
160 748 BAUMANS JOHAN 01:11:08 8.77 00:06:50 2Espoirs H 19
161 751 ALBANESE MARIE-HELENE 01:12:47 8.57 00:06:60 21Ainées 1 12
162 752 SORCE LIA 01:12:47 8.57 00:06:60 22Ainées 1 6
Jogging de GEER (ClaP) 2017
Distance : 10.4 kms
162 coureurs
Normal Interclubs